North Ronaldsay, United Kingdom

11:05 AM BST on August 20, 2014 (GMT +0100)
IORKNEYS2 | Change Station
CLOSE
Current Station
Personal Weather Station
Location: Sanday, ORKNEY
Elevation: 16 ft
Nearby Weather Stations

Elev 16 ft 59.24 °N, 2.59 °W | Updated 5 minutes ago

Scattered Clouds
Scattered Clouds
53.4 °F
Feels Like 53.4 °F
N
21.3
Wind Variable Wind from NW
Gusts 29.1 mph

Today
High -- | Low -- °F
--% Chance of Precip.
Yesterday
High -- | Low -- °F
Precip. -- in
5:40 AM 8:51 PM
Waning Crescent, 23% visible
Pressure 29.89 in
Visibility 6.2 miles
Clouds Few 800 ft
Scattered Clouds 1800 ft
Dew Point 48 °F
Humidity 81%
Rainfall 0.01 in
Snow Depth Not available.
UV 3 out of 12
Pollen Not available.
Air Quality Not available.
Flu Activity Not available.
METAR EGPA 200950Z 31013KT 9999 VCSH FEW008 SCT018 12/08 Q1012

More Conditions Fewer Conditions

Pressure 29.89 in
Visibility 6.2 miles
Clouds Few 800 ft
Scattered Clouds 1800 ft
Dew Point 48 °F
Humidity 81%
Rainfall 0.01 in
Snow Depth Not available.
UV 3 out of 12
Pollen Not available.
Air Quality Not available.
Flu Activity Not available.
METAR EGPA 200950Z 31013KT 9999 VCSH FEW008 SCT018 12/08 Q1012

More Conditions Fewer Conditions

10-Day Weather Forecast

Almanac

Astronomy

Aug. 20, 2014 Rise Set
Actual Time 5:40 AM BST 8:51 PM BST
Civil Twilight 4:52 AM BST 9:39 PM BST
Nautical Twilight 3:44 AM BST 10:46 PM BST
Astronomical Twilight 1:49 AM BST 12:58 AM BST
Moon 12:39 AM BST 5:53 PM BST
Length of Visible Light 16h 47m
Length of Day
15h 10m
Tomorrow will be 5m 12s shorter.
Waning Crescent, 23% of the Moon is Illuminated
Today
Waning Crescent
Aug 25
New
Sep 2
First Quarter
Sep 8
Full
Sep 15
Last Quarter

Yesterday's Extremes

Country Highs Country Lows

Community

WunderPhotos

Upload Photos

1,745,604 photos uploaded!

Nearby

Snow Depth

Not available.

Earthquake Activity

City Distance Mag. Time & Date
No recent earthquake activity has been reported nearby.
Minimum magnitude displayed is 2.5.

Coastal Water Temperatures

Place Temperature
No Stations Reporting

Nearby Weather Stations